sensor_id;sensor_type;location;lat;lon;timestamp;pressure;altitude;pressure_sealevel;temperature;humidity
10992;BME280;5549;47.028;15.514;2024-03-08T00:01:20;96813.53;;;5.66;66.69
10992;BME280;5549;47.028;15.514;2024-03-08T00:03:48;96810.94;;;5.66;67.01
10992;BME280;5549;47.028;15.514;2024-03-08T00:06:20;96817.00;;;5.66;66.87
10992;BME280;5549;47.028;15.514;2024-03-08T00:08:50;96810.94;;;5.66;66.58
10992;BME280;5549;47.028;15.514;2024-03-08T00:11:18;96807.31;;;5.68;66.93
10992;BME280;5549;47.028;15.514;2024-03-08T00:13:50;96812.44;;;5.70;67.22
10992;BME280;5549;47.028;15.514;2024-03-08T00:16:18;96808.06;;;5.70;67.27
10992;BME280;5549;47.028;15.514;2024-03-08T00:18:47;96810.56;;;5.72;67.07
10992;BME280;5549;47.028;15.514;2024-03-08T00:21:35;96802.66;;;5.73;67.65
10992;BME280;5549;47.028;15.514;2024-03-08T00:24:04;96803.50;;;5.74;67.89
10992;BME280;5549;47.028;15.514;2024-03-08T00:26:31;96808.63;;;5.75;67.30
10992;BME280;5549;47.028;15.514;2024-03-08T00:29:03;96806.09;;;5.74;67.52
10992;BME280;5549;47.028;15.514;2024-03-08T00:31:33;96807.31;;;5.54;68.89
10992;BME280;5549;47.028;15.514;2024-03-08T00:34:09;96805.91;;;5.48;69.60
10992;BME280;5549;47.028;15.514;2024-03-08T00:36:39;96804.88;;;5.51;68.91
10992;BME280;5549;47.028;15.514;2024-03-08T00:39:07;96802.94;;;5.55;68.71
10992;BME280;5549;47.028;15.514;2024-03-08T00:41:35;96802.75;;;5.58;68.58
10992;BME280;5549;47.028;15.514;2024-03-08T00:44:03;96797.34;;;5.61;68.55
10992;BME280;5549;47.028;15.514;2024-03-08T00:46:33;96799.69;;;5.65;67.76
10992;BME280;5549;47.028;15.514;2024-03-08T00:49:03;96798.00;;;5.64;68.60
10992;BME280;5549;47.028;15.514;2024-03-08T00:51:33;96791.78;;;5.67;68.36
10992;BME280;5549;47.028;15.514;2024-03-08T00:54:03;96795.97;;;5.69;68.42
10992;BME280;5549;47.028;15.514;2024-03-08T00:56:30;96788.03;;;5.71;68.27
10992;BME280;5549;47.028;15.514;2024-03-08T00:59:03;96785.34;;;5.72;68.05
10992;BME280;5549;47.028;15.514;2024-03-08T01:01:31;96782.66;;;5.74;68.33
10992;BME280;5549;47.028;15.514;2024-03-08T01:04:00;96774.75;;;5.75;68.56
10992;BME280;5549;47.028;15.514;2024-03-08T01:06:28;96776.69;;;5.72;68.66
10992;BME280;5549;47.028;15.514;2024-03-08T01:08:57;96779.84;;;5.77;68.83
10992;BME280;5549;47.028;15.514;2024-03-08T01:11:29;96779.94;;;5.75;69.44
10992;BME280;5549;47.028;15.514;2024-03-08T01:13:59;96780.97;;;5.73;69.95
10992;BME280;5549;47.028;15.514;2024-03-08T01:16:34;96771.56;;;5.70;69.59
10992;BME280;5549;47.028;15.514;2024-03-08T01:19:02;96775.22;;;5.68;70.37
10992;BME280;5549;47.028;15.514;2024-03-08T01:21:30;96777.25;;;5.63;70.02
10992;BME280;5549;47.028;15.514;2024-03-08T01:23:58;96766.94;;;5.61;69.87
10992;BME280;5549;47.028;15.514;2024-03-08T01:26:27;96770.38;;;5.62;70.24
10992;BME280;5549;47.028;15.514;2024-03-08T01:28:58;96762.38;;;5.65;70.20
10992;BME280;5549;47.028;15.514;2024-03-08T01:31:27;96767.41;;;5.68;69.22
10992;BME280;5549;47.028;15.514;2024-03-08T01:33:55;96764.69;;;5.69;69.45
10992;BME280;5549;47.028;15.514;2024-03-08T01:36:23;96765.53;;;5.70;68.98
10992;BME280;5549;47.028;15.514;2024-03-08T01:38:51;96760.31;;;5.70;69.55
10992;BME280;5549;47.028;15.514;2024-03-08T01:41:18;96766.19;;;5.73;69.36
10992;BME280;5549;47.028;15.514;2024-03-08T01:43:49;96762.09;;;5.69;69.21
10992;BME280;5549;47.028;15.514;2024-03-08T01:46:21;96759.75;;;5.65;68.95
10992;BME280;5549;47.028;15.514;2024-03-08T01:48:51;96758.09;;;5.64;68.40
10992;BME280;5549;47.028;15.514;2024-03-08T01:51:22;96759.56;;;5.68;68.85
10992;BME280;5549;47.028;15.514;2024-03-08T01:53:49;96755.09;;;5.70;67.99
10992;BME280;5549;47.028;15.514;2024-03-08T01:56:20;96762.19;;;5.68;68.10
10992;BME280;5549;47.028;15.514;2024-03-08T01:58:49;96758.84;;;5.66;68.34
10992;BME280;5549;47.028;15.514;2024-03-08T02:01:19;96758.84;;;5.66;68.03
10992;BME280;5549;47.028;15.514;2024-03-08T02:03:50;96753.63;;;5.66;68.55
10992;BME280;5549;47.028;15.514;2024-03-08T02:06:19;96762.38;;;5.65;68.02
10992;BME280;5549;47.028;15.514;2024-03-08T02:08:48;96762.47;;;5.63;68.88
10992;BME280;5549;47.028;15.514;2024-03-08T02:11:16;96764.03;;;5.66;68.49
10992;BME280;5549;47.028;15.514;2024-03-08T02:13:45;96761.53;;;5.64;68.65
10992;BME280;5549;47.028;15.514;2024-03-08T02:16:21;96766.09;;;5.61;68.73
10992;BME280;5549;47.028;15.514;2024-03-08T02:18:49;96761.81;;;5.60;68.78
10992;BME280;5549;47.028;15.514;2024-03-08T02:21:19;96758.28;;;5.61;68.34
10992;BME280;5549;47.028;15.514;2024-03-08T02:23:49;96761.53;;;5.64;68.92
10992;BME280;5549;47.028;15.514;2024-03-08T02:26:21;96757.34;;;5.62;69.51
10992;BME280;5549;47.028;15.514;2024-03-08T02:28:49;96757.34;;;5.62;68.98
10992;BME280;5549;47.028;15.514;2024-03-08T02:31:17;96757.63;;;5.57;69.49
10992;BME280;5549;47.028;15.514;2024-03-08T02:33:46;96754.09;;;5.58;69.16
10992;BME280;5549;47.028;15.514;2024-03-08T02:36:14;96755.84;;;5.58;69.65
10992;BME280;5549;47.028;15.514;2024-03-08T02:38:43;96754.09;;;5.58;69.06
10992;BME280;5549;47.028;15.514;2024-03-08T02:41:11;96756.03;;;5.55;70.02
10992;BME280;5549;47.028;15.514;2024-03-08T02:43:41;96750.84;;;5.55;70.27
10992;BME280;5549;47.028;15.514;2024-03-08T02:46:08;96744.88;;;5.53;69.88
10992;BME280;5549;47.028;15.514;2024-03-08T02:48:37;96749.81;;;5.57;70.17
10992;BME280;5549;47.028;15.514;2024-03-08T02:51:06;96747.22;;;5.57;70.13
10992;BME280;5549;47.028;15.514;2024-03-08T02:53:33;96748.78;;;5.60;69.33
10992;BME280;5549;47.028;15.514;2024-03-08T02:56:06;96748.69;;;5.61;69.99
10992;BME280;5549;47.028;15.514;2024-03-08T02:58:37;96751.94;;;5.65;69.71
10992;BME280;5549;47.028;15.514;2024-03-08T03:01:07;96748.59;;;5.63;70.01
10992;BME280;5549;47.028;15.514;2024-03-08T03:03:36;96754.00;;;5.60;70.05
10992;BME280;5549;47.028;15.514;2024-03-08T03:06:06;96754.56;;;5.65;69.45
10992;BME280;5549;47.028;15.514;2024-03-08T03:08:36;96751.41;;;5.60;69.88
10992;BME280;5549;47.028;15.514;2024-03-08T03:11:06;96749.81;;;5.57;69.69
10992;BME280;5549;47.028;15.514;2024-03-08T03:13:40;96756.03;;;5.55;69.88
10992;BME280;5549;47.028;15.514;2024-03-08T03:16:11;96745.16;;;5.48;69.37
10992;BME280;5549;47.028;15.514;2024-03-08T03:18:44;96743.03;;;5.40;69.47
10992;BME280;5549;47.028;15.514;2024-03-08T03:21:13;96745.63;;;5.40;69.64
10992;BME280;5549;47.028;15.514;2024-03-08T03:23:41;96745.44;;;5.29;70.10
10992;BME280;5549;47.028;15.514;2024-03-08T03:26:11;96745.44;;;5.29;70.15
10992;BME280;5549;47.028;15.514;2024-03-08T03:28:39;96747.13;;;5.30;70.32
10992;BME280;5549;47.028;15.514;2024-03-08T03:31:08;96745.25;;;5.32;69.51
10992;BME280;5549;47.028;15.514;2024-03-08T03:33:41;96745.06;;;5.35;69.79
10992;BME280;5549;47.028;15.514;2024-03-08T03:36:11;96748.22;;;5.40;69.58
10992;BME280;5549;47.028;15.514;2024-03-08T03:38:42;96745.34;;;5.45;69.83
10992;BME280;5549;47.028;15.514;2024-03-08T03:41:14;96745.25;;;5.46;69.46
10992;BME280;5549;47.028;15.514;2024-03-08T03:43:44;96743.69;;;5.44;69.73
10992;BME280;5549;47.028;15.514;2024-03-08T03:46:12;96742.09;;;5.41;69.83
10992;BME280;5549;47.028;15.514;2024-03-08T03:48:43;96740.41;;;5.40;70.09
10992;BME280;5549;47.028;15.514;2024-03-08T03:51:11;96744.69;;;5.41;70.33
10992;BME280;5549;47.028;15.514;2024-03-08T03:53:44;96741.91;;;5.44;70.21
10992;BME280;5549;47.028;15.514;2024-03-08T03:56:11;96741.16;;;5.42;69.70
10992;BME280;5549;47.028;15.514;2024-03-08T03:58:43;96739.31;;;5.44;69.56
10992;BME280;5549;47.028;15.514;2024-03-08T04:01:11;96746.00;;;5.48;69.87
10992;BME280;5549;47.028;15.514;2024-03-08T04:03:45;96741.72;;;5.47;69.14
10992;BME280;5549;47.028;15.514;2024-03-08T04:06:16;96743.41;;;5.34;69.36
10992;BME280;5549;47.028;15.514;2024-03-08T04:08:48;96742.09;;;5.27;69.68
10992;BME280;5549;47.028;15.514;2024-03-08T04:11:18;96739.31;;;5.30;69.83
10992;BME280;5549;47.028;15.514;2024-03-08T04:13:49;96740.88;;;5.33;69.43
10992;BME280;5549;47.028;15.514;2024-03-08T04:16:19;96746.19;;;5.31;69.26
10992;BME280;5549;47.028;15.514;2024-03-08T04:18:52;96745.06;;;5.35;69.70
10992;BME280;5549;47.028;15.514;2024-03-08T04:21:20;96747.69;;;5.35;69.61
10992;BME280;5549;47.028;15.514;2024-03-08T04:23:50;96746.75;;;5.36;69.36
10992;BME280;5549;47.028;15.514;2024-03-08T04:26:18;96744.22;;;5.35;69.48
10992;BME280;5549;47.028;15.514;2024-03-08T04:28:49;96750.28;;;5.35;70.20
10992;BME280;5549;47.028;15.514;2024-03-08T04:31:17;96750.28;;;5.35;69.82
10992;BME280;5549;47.028;15.514;2024-03-08T04:33:46;96746.94;;;5.33;69.35
10992;BME280;5549;47.028;15.514;2024-03-08T04:36:14;96748.03;;;5.29;69.34
10992;BME280;5549;47.028;15.514;2024-03-08T04:38:44;96755.53;;;5.20;69.78
10992;BME280;5549;47.028;15.514;2024-03-08T04:41:14;96751.19;;;5.20;70.16
10992;BME280;5549;47.028;15.514;2024-03-08T04:43:46;96754.88;;;5.16;70.50
10992;BME280;5549;47.028;15.514;2024-03-08T04:46:15;96745.06;;;4.91;72.28
10992;BME280;5549;47.028;15.514;2024-03-08T04:48:43;96749.09;;;4.97;71.60
10992;BME280;5549;47.028;15.514;2024-03-08T04:51:16;96750.00;;;4.96;72.34
10992;BME280;5549;47.028;15.514;2024-03-08T04:53:46;96747.78;;;5.04;71.84
10992;BME280;5549;47.028;15.514;2024-03-08T04:56:14;96747.97;;;5.01;71.55
10992;BME280;5549;47.028;15.514;2024-03-08T04:58:42;96753.38;;;4.98;72.68
10992;BME280;5549;47.028;15.514;2024-03-08T05:01:10;96741.38;;;4.95;72.95
10992;BME280;5549;47.028;15.514;2024-03-08T05:03:40;96747.47;;;4.80;73.50
10992;BME280;5549;47.028;15.514;2024-03-08T05:06:10;96748.59;;;4.90;73.03
10992;BME280;5549;47.028;15.514;2024-03-08T05:08:41;96753.94;;;5.03;72.52
10992;BME280;5549;47.028;15.514;2024-03-08T05:11:11;96751.53;;;5.14;72.62
10992;BME280;5549;47.028;15.514;2024-03-08T05:13:43;96750.41;;;5.18;72.34
10992;BME280;5549;47.028;15.514;2024-03-08T05:16:14;96751.44;;;5.15;71.73
10992;BME280;5549;47.028;15.514;2024-03-08T05:18:43;96754.69;;;5.19;71.73
10992;BME280;5549;47.028;15.514;2024-03-08T05:21:13;96754.38;;;5.25;71.72
10992;BME280;5549;47.028;15.514;2024-03-08T05:23:44;96751.75;;;5.25;71.73
10992;BME280;5549;47.028;15.514;2024-03-08T05:26:14;96753.44;;;5.26;71.92
10992;BME280;5549;47.028;15.514;2024-03-08T05:28:45;96751.00;;;5.23;71.72
10992;BME280;5549;47.028;15.514;2024-03-08T05:31:19;96751.34;;;5.17;72.07
10992;BME280;5549;47.028;15.514;2024-03-08T05:33:50;96747.72;;;5.05;72.21
10992;BME280;5549;47.028;15.514;2024-03-08T05:36:21;96746.31;;;5.00;72.12
10992;BME280;5549;47.028;15.514;2024-03-08T05:38:51;96753.84;;;5.04;72.26
10992;BME280;5549;47.028;15.514;2024-03-08T05:41:21;96757.09;;;5.08;71.68
10992;BME280;5549;47.028;15.514;2024-03-08T05:43:51;96758.97;;;5.06;71.67
10992;BME280;5549;47.028;15.514;2024-03-08T05:46:20;96761.66;;;5.04;71.37
10992;BME280;5549;47.028;15.514;2024-03-08T05:48:52;96764.06;;;5.07;71.00
10992;BME280;5549;47.028;15.514;2024-03-08T05:51:20;96763.78;;;5.12;71.05
10992;BME280;5549;47.028;15.514;2024-03-08T05:53:50;96759.06;;;5.19;70.45
10992;BME280;5549;47.028;15.514;2024-03-08T05:56:21;96756.31;;;5.22;70.26
10992;BME280;5549;47.028;15.514;2024-03-08T05:58:49;96752.50;;;5.27;69.79
10992;BME280;5549;47.028;15.514;2024-03-08T06:01:18;96753.25;;;5.29;69.85
10992;BME280;5549;47.028;15.514;2024-03-08T06:03:46;96755.66;;;5.32;69.76
10992;BME280;5549;47.028;15.514;2024-03-08T06:06:16;96755.84;;;5.29;70.03
10992;BME280;5549;47.028;15.514;2024-03-08T06:08:45;96763.28;;;5.35;69.88
10992;BME280;5549;47.028;15.514;2024-03-08T06:11:15;96757.72;;;5.41;69.48
10992;BME280;5549;47.028;15.514;2024-03-08T06:13:43;96766.47;;;5.40;68.99
10992;BME280;5549;47.028;15.514;2024-03-08T06:16:13;96762.09;;;5.41;69.85
10992;BME280;5549;47.028;15.514;2024-03-08T06:18:44;96765.44;;;5.43;69.48
10992;BME280;5549;47.028;15.514;2024-03-08T06:21:16;96770.19;;;5.51;69.00
10992;BME280;5549;47.028;15.514;2024-03-08T06:23:43;96760.59;;;5.51;69.90
10992;BME280;5549;47.028;15.514;2024-03-08T06:26:11;96769.16;;;5.53;69.43
10992;BME280;5549;47.028;15.514;2024-03-08T06:28:39;96768.69;;;5.61;69.07
10992;BME280;5549;47.028;15.514;2024-03-08T06:31:08;96772.59;;;5.68;69.18
10992;BME280;5549;47.028;15.514;2024-03-08T06:33:39;96775.75;;;5.73;69.57
10992;BME280;5549;47.028;15.514;2024-03-08T06:36:09;96774.19;;;5.70;69.29
10992;BME280;5549;47.028;15.514;2024-03-08T06:38:41;96778.28;;;5.74;69.83
10992;BME280;5549;47.028;15.514;2024-03-08T06:41:12;96779.31;;;5.72;69.90
10992;BME280;5549;47.028;15.514;2024-03-08T06:43:42;96783.75;;;5.84;70.20
10992;BME280;5549;47.028;15.514;2024-03-08T06:46:10;96781.16;;;5.98;70.15
10992;BME280;5549;47.028;15.514;2024-03-08T06:48:38;96775.56;;;6.04;70.95
10992;BME280;5549;47.028;15.514;2024-03-08T06:51:06;96780.59;;;6.07;70.09
10992;BME280;5549;47.028;15.514;2024-03-08T06:53:34;96786.44;;;6.11;70.50
10992;BME280;5549;47.028;15.514;2024-03-08T06:56:04;96777.25;;;6.05;70.06
10992;BME280;5549;47.028;15.514;2024-03-08T06:58:31;96782.47;;;6.05;69.71
10992;BME280;5549;47.028;15.514;2024-03-08T07:01:01;96783.69;;;5.71;70.16
10992;BME280;5549;47.028;15.514;2024-03-08T07:03:30;96790.56;;;5.44;70.64
10992;BME280;5549;47.028;15.514;2024-03-08T07:06:00;96792.84;;;5.20;70.90
10992;BME280;5549;47.028;15.514;2024-03-08T07:08:31;96790.19;;;5.06;70.73
10992;BME280;5549;47.028;15.514;2024-03-08T07:11:02;96795.94;;;5.41;73.72
10992;BME280;5549;47.028;15.514;2024-03-08T07:13:32;96790.13;;;5.94;77.20
10992;BME280;5549;47.028;15.514;2024-03-08T07:16:01;96783.56;;;6.42;78.31
10992;BME280;5549;47.028;15.514;2024-03-08T07:18:30;96779.03;;;6.86;78.49
10992;BME280;5549;47.028;15.514;2024-03-08T07:21:00;96780.16;;;7.21;77.14
10992;BME280;5549;47.028;15.514;2024-03-08T07:23:30;96777.34;;;7.50;75.21
10992;BME280;5549;47.028;15.514;2024-03-08T07:26:17;96785.91;;;7.77;73.06
10992;BME280;5549;47.028;15.514;2024-03-08T07:28:45;96788.72;;;7.87;71.84
10992;BME280;5549;47.028;15.514;2024-03-08T07:31:15;96772.50;;;7.94;70.06
10992;BME280;5549;47.028;15.514;2024-03-08T07:33:54;96775.50;;;8.01;68.26
10992;BME280;5549;47.028;15.514;2024-03-08T07:36:21;96781.56;;;8.14;68.76
10992;BME280;5549;47.028;15.514;2024-03-08T07:38:49;96779.41;;;8.32;68.97
10992;BME280;5549;47.028;15.514;2024-03-08T07:41:18;96776.56;;;8.48;68.91
10992;BME280;5549;47.028;15.514;2024-03-08T07:43:46;96780.38;;;8.67;67.92
10992;BME280;5549;47.028;15.514;2024-03-08T07:46:18;96782.59;;;8.85;67.52
10992;BME280;5549;47.028;15.514;2024-03-08T07:48:45;96781.69;;;8.97;66.24
10992;BME280;5549;47.028;15.514;2024-03-08T07:51:16;96786.25;;;9.06;65.64
10992;BME280;5549;47.028;15.514;2024-03-08T07:53:44;96783.44;;;9.20;65.59
10992;BME280;5549;47.028;15.514;2024-03-08T07:56:12;96782.97;;;9.26;64.66
10992;BME280;5549;47.028;15.514;2024-03-08T07:58:41;96786.44;;;9.38;63.44
10992;BME280;5549;47.028;15.514;2024-03-08T08:01:16;96788.72;;;9.43;63.77
10992;BME280;5549;47.028;15.514;2024-03-08T08:03:44;96790.41;;;9.44;63.00
10992;BME280;5549;47.028;15.514;2024-03-08T08:06:15;96782.75;;;9.41;62.04
10992;BME280;5549;47.028;15.514;2024-03-08T08:08:43;96791.22;;;9.44;62.15
10992;BME280;5549;47.028;15.514;2024-03-08T08:11:11;96787.78;;;9.55;62.35
10992;BME280;5549;47.028;15.514;2024-03-08T08:13:38;96783.50;;;9.54;61.25
10992;BME280;5549;47.028;15.514;2024-03-08T08:16:10;96791.03;;;9.70;61.76
10992;BME280;5549;47.028;15.514;2024-03-08T08:18:41;96791.41;;;9.87;62.70
10992;BME280;5549;47.028;15.514;2024-03-08T08:21:10;96793.31;;;9.85;60.61
10992;BME280;5549;47.028;15.514;2024-03-08T08:23:38;96782.34;;;9.80;60.82
10992;BME280;5549;47.028;15.514;2024-03-08T08:26:06;96791.88;;;9.70;60.48
10992;BME280;5549;47.028;15.514;2024-03-08T08:28:34;96786.38;;;9.84;61.05
10992;BME280;5549;47.028;15.514;2024-03-08T08:31:04;96789.97;;;9.72;59.45
10992;BME280;5549;47.028;15.514;2024-03-08T08:33:33;96786.06;;;9.31;59.54
10992;BME280;5549;47.028;15.514;2024-03-08T08:36:01;96789.13;;;9.14;60.30
10992;BME280;5549;47.028;15.514;2024-03-08T08:38:32;96785.09;;;8.86;61.16
10992;BME280;5549;47.028;15.514;2024-03-08T08:40:59;96786.69;;;8.52;61.97
10992;BME280;5549;47.028;15.514;2024-03-08T08:43:28;96786.13;;;8.23;62.94
10992;BME280;5549;47.028;15.514;2024-03-08T08:45:56;96788.06;;;7.96;63.52
10992;BME280;5549;47.028;15.514;2024-03-08T08:48:26;96795.53;;;7.64;64.47
10992;BME280;5549;47.028;15.514;2024-03-08T08:50:59;96794.19;;;7.58;65.53
10992;BME280;5549;47.028;15.514;2024-03-08T08:53:28;96792.50;;;7.45;66.43
10992;BME280;5549;47.028;15.514;2024-03-08T08:55:56;96796.06;;;7.44;67.20
10992;BME280;5549;47.028;15.514;2024-03-08T08:58:23;96786.84;;;7.38;67.24
10992;BME280;5549;47.028;15.514;2024-03-08T09:00:51;96789.25;;;7.28;67.49
10992;BME280;5549;47.028;15.514;2024-03-08T09:03:21;96786.84;;;7.25;67.16
10992;BME280;5549;47.028;15.514;2024-03-08T09:05:52;96789.56;;;7.24;67.16
10992;BME280;5549;47.028;15.514;2024-03-08T09:08:21;96791.75;;;7.30;67.50
10992;BME280;5549;47.028;15.514;2024-03-08T09:10:51;96788.94;;;7.20;68.52
10992;BME280;5549;47.028;15.514;2024-03-08T09:13:21;96788.09;;;7.20;68.00
10992;BME280;5549;47.028;15.514;2024-03-08T09:15:49;96793.63;;;7.15;68.97
10992;BME280;5549;47.028;15.514;2024-03-08T09:18:19;96789.84;;;7.06;68.19
10992;BME280;5549;47.028;15.514;2024-03-08T09:20:46;96780.25;;;7.07;67.59
10992;BME280;5549;47.028;15.514;2024-03-08T09:23:14;96785.50;;;6.93;68.66
10992;BME280;5549;47.028;15.514;2024-03-08T09:25:44;96777.22;;;7.00;68.97
10992;BME280;5549;47.028;15.514;2024-03-08T09:28:15;96784.25;;;6.86;67.82
10992;BME280;5549;47.028;15.514;2024-03-08T09:30:44;96782.38;;;6.88;69.00
10992;BME280;5549;47.028;15.514;2024-03-08T09:33:12;96776.63;;;6.83;67.57
10992;BME280;5549;47.028;15.514;2024-03-08T09:35:45;96782.47;;;6.86;67.79
10992;BME280;5549;47.028;15.514;2024-03-08T09:38:14;96786.91;;;6.98;67.74
10992;BME280;5549;47.028;15.514;2024-03-08T09:40:45;96778.50;;;6.81;67.39
10992;BME280;5549;47.028;15.514;2024-03-08T09:43:13;96782.25;;;6.89;67.33
10992;BME280;5549;47.028;15.514;2024-03-08T09:45:40;96774.53;;;6.88;69.09
10992;BME280;5549;47.028;15.514;2024-03-08T09:48:11;96768.34;;;7.03;68.32
10992;BME280;5549;47.028;15.514;2024-03-08T09:50:42;96768.16;;;7.31;67.53
10992;BME280;5549;47.028;15.514;2024-03-08T09:53:12;96772.97;;;7.37;65.50
10992;BME280;5549;47.028;15.514;2024-03-08T09:55:39;96776.31;;;7.52;66.19
10992;BME280;5549;47.028;15.514;2024-03-08T09:58:15;96776.81;;;7.45;61.35
10992;BME280;5549;47.028;15.514;2024-03-08T10:00:59;96768.16;;;7.57;62.77
10992;BME280;5549;47.028;15.514;2024-03-08T10:03:30;96777.53;;;7.72;62.11
10992;BME280;5549;47.028;15.514;2024-03-08T10:06:01;96774.72;;;7.62;64.55
10992;BME280;5549;47.028;15.514;2024-03-08T10:08:30;96770.03;;;7.67;63.29
10992;BME280;5549;47.028;15.514;2024-03-08T10:10:57;96775.88;;;7.71;63.37
10992;BME280;5549;47.028;15.514;2024-03-08T10:13:26;96771.47;;;7.84;63.38
10992;BME280;5549;47.028;15.514;2024-03-08T10:15:56;96769.16;;;7.92;62.46
10992;BME280;5549;47.028;15.514;2024-03-08T10:18:24;96768.81;;;7.97;61.57
10992;BME280;5549;47.028;15.514;2024-03-08T10:21:04;96765.84;;;8.14;61.24
10992;BME280;5549;47.028;15.514;2024-03-08T10:23:36;96765.81;;;8.27;61.86
10992;BME280;5549;47.028;15.514;2024-03-08T10:26:11;96767.69;;;8.38;61.03
10992;BME280;5549;47.028;15.514;2024-03-08T10:28:42;96763.69;;;8.45;58.90
10992;BME280;5549;47.028;15.514;2024-03-08T10:31:12;96769.16;;;8.29;57.85
10992;BME280;5549;47.028;15.514;2024-03-08T10:33:41;96760.78;;;8.36;57.68
10992;BME280;5549;47.028;15.514;2024-03-08T10:36:09;96770.09;;;8.28;56.52
10992;BME280;5549;47.028;15.514;2024-03-08T10:38:38;96770.91;;;8.04;57.22
10992;BME280;5549;47.028;15.514;2024-03-08T10:41:10;96763.38;;;8.00;58.84
10992;BME280;5549;47.028;15.514;2024-03-08T10:44:10;96771.72;;;8.18;59.17
10992;BME280;5549;47.028;15.514;2024-03-08T10:46:57;96764.44;;;7.97;59.43
10992;BME280;5549;47.028;15.514;2024-03-08T10:49:31;96764.19;;;8.13;58.20
10992;BME280;5549;47.028;15.514;2024-03-08T10:52:04;96762.19;;;8.17;58.98
10992;BME280;5549;47.028;15.514;2024-03-08T10:54:37;96761.63;;;8.24;58.35
10992;BME280;5549;47.028;15.514;2024-03-08T10:57:06;96764.34;;;8.35;58.99
10992;BME280;5549;47.028;15.514;2024-03-08T10:59:36;96763.94;;;8.29;56.87
10992;BME280;5549;47.028;15.514;2024-03-08T11:02:08;96760.91;;;8.22;55.68
10992;BME280;5549;47.028;15.514;2024-03-08T11:04:46;96760.59;;;8.27;57.47
10992;BME280;5549;47.028;15.514;2024-03-08T11:07:17;96751.66;;;8.42;56.19
10992;BME280;5549;47.028;15.514;2024-03-08T11:09:48;96745.31;;;8.33;57.72
10992;BME280;5549;47.028;15.514;2024-03-08T11:12:26;96750.38;;;8.11;56.48
10992;BME280;5549;47.028;15.514;2024-03-08T11:15:11;96747.53;;;7.78;59.23
10992;BME280;5549;47.028;15.514;2024-03-08T11:17:46;96743.06;;;8.03;58.47
10992;BME280;5549;47.028;15.514;2024-03-08T11:20:18;96736.31;;;8.25;56.00
10992;BME280;5549;47.028;15.514;2024-03-08T11:22:52;96733.84;;;8.47;57.39
10992;BME280;5549;47.028;15.514;2024-03-08T11:25:34;96741.75;;;8.22;59.33
10992;BME280;5549;47.028;15.514;2024-03-08T11:28:14;96733.19;;;8.20;57.08
10992;BME280;5549;47.028;15.514;2024-03-08T11:30:46;96730.72;;;8.42;55.82
10992;BME280;5549;47.028;15.514;2024-03-08T11:33:16;96728.34;;;8.39;57.40
10992;BME280;5549;47.028;15.514;2024-03-08T11:35:45;96725.47;;;8.18;57.00
10992;BME280;5549;47.028;15.514;2024-03-08T11:38:13;96725.06;;;8.12;57.87
10992;BME280;5549;47.028;15.514;2024-03-08T11:40:46;96719.66;;;8.26;56.48
10992;BME280;5549;47.028;15.514;2024-03-08T11:43:16;96718.72;;;8.27;57.07
10992;BME280;5549;47.028;15.514;2024-03-08T11:45:46;96713.50;;;8.27;56.41
10992;BME280;5549;47.028;15.514;2024-03-08T11:48:15;96706.31;;;8.18;56.33
10992;BME280;5549;47.028;15.514;2024-03-08T11:50:45;96697.16;;;8.36;57.22
10992;BME280;5549;47.028;15.514;2024-03-08T11:53:15;96696.22;;;8.24;58.28
10992;BME280;5549;47.028;15.514;2024-03-08T11:55:43;96703.38;;;8.46;57.33
10992;BME280;5549;47.028;15.514;2024-03-08T11:58:12;96691.75;;;8.74;59.26
10992;BME280;5549;47.028;15.514;2024-03-08T12:00:40;96694.63;;;8.82;54.13
10992;BME280;5549;47.028;15.514;2024-03-08T12:03:09;96688.44;;;8.59;57.16
10992;BME280;5549;47.028;15.514;2024-03-08T12:05:39;96695.75;;;8.43;57.03
10992;BME280;5549;47.028;15.514;2024-03-08T12:08:06;96691.56;;;8.64;55.15
10992;BME280;5549;47.028;15.514;2024-03-08T12:10:41;96687.38;;;8.86;54.46
10992;BME280;5549;47.028;15.514;2024-03-08T12:13:11;96685.94;;;8.58;55.40
10992;BME280;5549;47.028;15.514;2024-03-08T12:15:41;96688.81;;;8.66;54.33
10992;BME280;5549;47.028;15.514;2024-03-08T12:18:13;96684.22;;;8.70;55.59
10992;BME280;5549;47.028;15.514;2024-03-08T12:20:41;96684.22;;;8.70;55.83
10992;BME280;5549;47.028;15.514;2024-03-08T12:23:17;96678.38;;;8.42;56.30
10992;BME280;5549;47.028;15.514;2024-03-08T12:25:45;96674.97;;;8.29;55.71
10992;BME280;5549;47.028;15.514;2024-03-08T12:28:16;96676.09;;;8.61;55.24
10992;BME280;5549;47.028;15.514;2024-03-08T12:30:49;96676.00;;;8.39;55.96
10992;BME280;5549;47.028;15.514;2024-03-08T12:33:20;96670.53;;;8.18;54.88
10992;BME280;5549;47.028;15.514;2024-03-08T12:35:54;96667.69;;;8.45;55.18
10992;BME280;5549;47.028;15.514;2024-03-08T12:38:28;96669.63;;;8.07;56.89
10992;BME280;5549;47.028;15.514;2024-03-08T12:41:00;96662.19;;;8.37;55.74
10992;BME280;5549;47.028;15.514;2024-03-08T12:43:28;96655.78;;;8.41;54.73
10992;BME280;5549;47.028;15.514;2024-03-08T12:45:56;96655.66;;;8.43;54.43
10992;BME280;5549;47.028;15.514;2024-03-08T12:48:25;96646.72;;;8.34;53.90
10992;BME280;5549;47.028;15.514;2024-03-08T12:50:53;96652.16;;;8.31;54.38
10992;BME280;5549;47.028;15.514;2024-03-08T12:53:23;96652.22;;;8.42;55.27
10992;BME280;5549;47.028;15.514;2024-03-08T12:55:51;96649.81;;;8.15;56.47
10992;BME280;5549;47.028;15.514;2024-03-08T12:58:22;96651.31;;;8.30;54.98
10992;BME280;5549;47.028;15.514;2024-03-08T13:00:52;96656.25;;;8.35;54.60
10992;BME280;5549;47.028;15.514;2024-03-08T13:03:20;96648.22;;;8.60;56.24
10992;BME280;5549;47.028;15.514;2024-03-08T13:05:50;96637.00;;;8.71;54.73
10992;BME280;5549;47.028;15.514;2024-03-08T13:08:21;96634.19;;;8.61;56.17
10992;BME280;5549;47.028;15.514;2024-03-08T13:10:51;96635.63;;;8.65;55.59
10992;BME280;5549;47.028;15.514;2024-03-08T13:13:21;96637.25;;;8.79;54.70
10992;BME280;5549;47.028;15.514;2024-03-08T13:15:48;96630.97;;;8.93;54.42
10992;BME280;5549;47.028;15.514;2024-03-08T13:18:16;96628.47;;;9.03;53.50
10992;BME280;5549;47.028;15.514;2024-03-08T13:20:47;96625.38;;;9.09;52.57
10992;BME280;5549;47.028;15.514;2024-03-08T13:23:19;96624.56;;;9.19;53.84
10992;BME280;5549;47.028;15.514;2024-03-08T13:25:47;96627.88;;;9.21;54.17